Time,TemperatureF,DewpointF,PressureIn,WindDirection,WindDirectionDegrees,WindSpeedMPH,WindSpeedGustMPH,Humidity,HourlyPrecipIn,Conditions,Clouds,dailyrainin,SoftwareType,DateUTC
2013-03-22 00:00:00,66.4,57.9,29.58,SSE,150,5.0,5.0,74,0.00,,,0.00,Wunderground v.1.15,2013-03-22 05:00:00,
2013-03-22 00:10:00,66.5,58.0,29.58,South,183,5.0,5.0,74,0.00,,,0.00,Wunderground v.1.15,2013-03-22 05:10:00,
2013-03-22 00:20:00,66.5,58.3,29.57,South,189,4.0,4.0,75,0.00,,,0.00,Wunderground v.1.15,2013-03-22 05:20:00,
2013-03-22 00:30:00,66.5,58.3,29.57,SE,129,6.0,6.0,75,0.00,,,0.00,Wunderground v.1.15,2013-03-22 05:30:00,
2013-03-22 00:40:00,66.6,58.4,29.57,SE,131,7.0,7.0,75,0.00,,,0.00,Wunderground v.1.15,2013-03-22 05:40:00,
2013-03-22 00:50:00,66.7,58.5,29.57,South,189,5.0,10.0,75,0.00,,,0.00,Wunderground v.1.15,2013-03-22 05:50:00,
2013-03-22 01:00:00,66.6,58.8,29.57,South,184,5.0,5.0,76,0.00,,,0.00,Wunderground v.1.15,2013-03-22 06:00:00,
2013-03-22 01:10:00,66.6,58.8,29.57,South,188,5.0,6.0,76,0.00,,,0.00,Wunderground v.1.15,2013-03-22 06:10:00,
2013-03-22 01:20:00,66.7,58.9,29.57,South,180,5.0,7.0,76,0.00,,,0.00,Wunderground v.1.15,2013-03-22 06:20:00,
2013-03-22 01:30:00,66.7,58.9,29.57,SSE,167,5.0,9.0,76,0.00,,,0.00,Wunderground v.1.15,2013-03-22 06:30:00,
2013-03-22 01:40:00,66.7,58.9,29.57,SE,138,6.0,6.0,76,0.00,,,0.00,Wunderground v.1.15,2013-03-22 06:40:00,
2013-03-22 01:50:00,66.8,59.0,29.57,SSE,166,4.0,4.0,76,0.00,,,0.00,Wunderground v.1.15,2013-03-22 06:50:00,
2013-03-22 02:00:00,66.9,59.1,29.56,SSE,152,6.0,6.0,76,0.00,,,0.00,Wunderground v.1.15,2013-03-22 07:00:00,
2013-03-22 02:10:00,66.9,59.1,29.56,SSW,207,6.0,13.0,76,0.00,,,0.00,Wunderground v.1.15,2013-03-22 07:10:00,
2013-03-22 02:20:00,67.0,59.2,29.56,SSE,161,7.0,7.0,76,0.00,,,0.00,Wunderground v.1.15,2013-03-22 07:20:00,
2013-03-22 02:30:00,66.9,59.1,29.56,SSE,165,5.0,5.0,76,0.00,,,0.00,Wunderground v.1.15,2013-03-22 07:30:00,
2013-03-22 02:40:00,66.9,59.5,29.56,SSE,154,5.0,5.0,77,0.00,,,0.00,Wunderground v.1.15,2013-03-22 07:40:00,
2013-03-22 02:50:00,66.9,59.5,29.56,SSE,165,6.0,6.0,77,0.00,,,0.00,Wunderground v.1.15,2013-03-22 07:50:00,
2013-03-22 03:00:00,66.9,59.5,29.56,SSW,207,4.0,4.0,77,0.00,,,0.00,Wunderground v.1.15,2013-03-22 08:00:00,
2013-03-22 03:10:00,66.9,59.5,29.56,SE,146,4.0,4.0,77,0.00,,,0.00,Wunderground v.1.15,2013-03-22 08:10:00,
2013-03-22 03:20:00,66.8,59.4,29.55,South,175,5.0,7.0,77,0.00,,,0.00,Wunderground v.1.15,2013-03-22 08:20:00,
2013-03-22 03:30:00,66.9,59.5,29.55,SE,142,6.0,6.0,77,0.00,,,0.00,Wunderground v.1.15,2013-03-22 08:30:00,
2013-03-22 03:40:00,66.7,59.6,29.55,South,178,3.0,6.0,78,0.00,,,0.00,Wunderground v.1.15,2013-03-22 08:40:00,
2013-03-22 03:50:00,66.7,59.6,29.55,SSW,192,5.0,5.0,78,0.00,,,0.00,Wunderground v.1.15,2013-03-22 08:50:00,
2013-03-22 04:00:00,66.7,59.6,29.55,South,173,3.0,6.0,78,0.00,,,0.00,Wunderground v.1.15,2013-03-22 09:00:00,
2013-03-22 04:10:00,66.5,59.4,29.54,SSE,159,3.0,3.0,78,0.00,,,0.00,Wunderground v.1.15,2013-03-22 09:10:00,
2013-03-22 04:20:00,66.4,59.3,29.55,SE,128,4.0,4.0,78,0.00,,,0.00,Wunderground v.1.15,2013-03-22 09:20:00,
2013-03-22 04:30:00,66.4,59.3,29.55,SSE,151,3.0,3.0,78,0.00,,,0.00,Wunderground v.1.15,2013-03-22 09:30:00,
2013-03-22 04:40:00,66.5,59.4,29.54,South,171,4.0,4.0,78,0.00,,,0.00,Wunderground v.1.15,2013-03-22 09:40:00,
2013-03-22 04:50:00,66.4,59.3,29.54,South,180,5.0,5.0,78,0.00,,,0.00,Wunderground v.1.15,2013-03-22 09:50:00,
2013-03-22 05:00:00,66.3,59.2,29.54,South,184,4.0,4.0,78,0.00,,,0.00,Wunderground v.1.15,2013-03-22 10:00:00,
2013-03-22 05:10:00,66.2,59.5,29.54,South,171,3.0,4.0,79,0.00,,,0.00,Wunderground v.1.15,2013-03-22 10:10:00,
2013-03-22 05:20:00,66.3,59.6,29.55,SSW,195,4.0,6.0,79,0.00,,,0.00,Wunderground v.1.15,2013-03-22 10:20:00,
2013-03-22 05:30:00,66.2,59.5,29.56,SSW,209,2.0,2.0,79,0.00,,,0.00,Wunderground v.1.15,2013-03-22 10:30:00,
2013-03-22 05:40:00,66.3,59.6,29.57,South,184,2.0,2.0,79,0.00,,,0.00,Wunderground v.1.15,2013-03-22 10:40:00,
2013-03-22 05:50:00,66.2,59.8,29.58,South,182,1.0,1.0,80,0.00,,,0.00,Wunderground v.1.15,2013-03-22 10:50:00,
2013-03-22 06:00:00,66.2,59.8,29.58,SSW,213,0.0,0.0,80,0.00,,,0.00,Wunderground v.1.15,2013-03-22 11:00:00,
2013-03-22 06:10:00,66.1,59.7,29.58,ESE,114,1.0,1.0,80,0.00,,,0.00,Wunderground v.1.15,2013-03-22 11:10:00,
2013-03-22 06:20:00,66.0,59.7,29.59,South,186,0.0,0.0,80,0.00,,,0.00,Wunderground v.1.15,2013-03-22 11:20:00,
2013-03-22 06:30:00,66.1,59.7,29.59,SSW,208,1.0,1.0,80,0.00,,,0.00,Wunderground v.1.15,2013-03-22 11:30:00,
2013-03-22 06:40:00,66.0,60.0,29.60,SE,145,0.0,1.0,81,0.00,,,0.00,Wunderground v.1.15,2013-03-22 11:40:00,
2013-03-22 06:50:00,66.0,59.7,29.61,SSW,193,1.0,3.0,80,0.00,,,0.00,Wunderground v.1.15,2013-03-22 11:50:00,
2013-03-22 07:00:00,66.0,60.0,29.61,SSE,163,1.0,5.0,81,0.00,,,0.00,Wunderground v.1.15,2013-03-22 12:00:00,
2013-03-22 07:10:00,65.8,59.8,29.61,South,169,1.0,2.0,81,0.00,,,0.00,Wunderground v.1.15,2013-03-22 12:10:00,
2013-03-22 07:20:00,65.5,59.5,29.62,SSW,194,1.0,2.0,81,0.00,,,0.00,Wunderground v.1.15,2013-03-22 12:20:00,
2013-03-22 07:30:00,65.2,59.2,29.62,SSE,147,1.0,1.0,81,0.00,,,0.00,Wunderground v.1.15,2013-03-22 12:30:00,
2013-03-22 07:40:00,64.9,59.3,29.63,SE,146,0.0,0.0,82,0.00,,,0.00,Wunderground v.1.15,2013-03-22 12:40:00,
2013-03-22 07:50:00,60.0,51.7,29.65,NNE,17,4.0,11.0,74,0.00,,,0.00,Wunderground v.1.15,2013-03-22 12:50:00,
2013-03-22 08:00:00,56.6,45.8,29.67,North,355,7.0,7.0,67,0.00,,,0.00,Wunderground v.1.15,2013-03-22 13:00:00,
2013-03-22 08:10:00,55.0,43.8,29.68,North,360,8.0,8.0,66,0.00,,,0.00,Wunderground v.1.15,2013-03-22 13:10:00,
2013-03-22 08:20:00,53.6,42.5,29.69,North,360,7.0,7.0,66,0.00,,,0.00,Wunderground v.1.15,2013-03-22 13:20:00,
2013-03-22 08:30:00,52.8,42.5,29.70,NE,37,5.0,6.0,68,0.00,,,0.00,Wunderground v.1.15,2013-03-22 13:30:00,
2013-03-22 08:40:00,52.4,42.5,29.71,North,9,5.0,5.0,69,0.00,,,0.00,Wunderground v.1.15,2013-03-22 13:40:00,
2013-03-22 08:50:00,52.1,42.6,29.72,NNE,22,4.0,4.0,70,0.00,,,0.00,Wunderground v.1.15,2013-03-22 13:50:00,
2013-03-22 09:00:00,51.7,42.6,29.73,NNE,26,5.0,6.0,71,0.00,,,0.00,Wunderground v.1.15,2013-03-22 14:00:00,
2013-03-22 09:10:00,51.7,43.0,29.74,NNE,20,4.0,4.0,72,0.00,,,0.00,Wunderground v.1.15,2013-03-22 14:10:00,
2013-03-22 09:20:00,51.4,43.0,29.73,NNE,30,3.0,5.0,73,0.00,,,0.00,Wunderground v.1.15,2013-03-22 14:20:00,
2013-03-22 09:30:00,51.0,43.0,29.73,North,360,4.0,4.0,74,0.00,,,0.00,Wunderground v.1.15,2013-03-22 14:30:00,
2013-03-22 09:40:00,50.9,43.3,29.74,NNW,334,3.0,3.0,75,0.00,,,0.00,Wunderground v.1.15,2013-03-22 14:40:00,
2013-03-22 09:50:00,50.7,43.1,29.74,North,9,4.0,5.0,75,0.00,,,0.00,Wunderground v.1.15,2013-03-22 14:50:00,
2013-03-22 10:00:00,50.4,42.8,29.75,NNW,342,4.0,4.0,75,0.00,,,0.00,Wunderground v.1.15,2013-03-22 15:00:00,
2013-03-22 10:10:00,50.3,43.0,29.76,East,83,4.0,4.0,76,0.00,,,0.00,Wunderground v.1.15,2013-03-22 15:10:00,
2013-03-22 10:20:00,50.4,43.1,29.76,North,360,3.0,3.0,76,0.00,,,0.00,Wunderground v.1.15,2013-03-22 15:20:00,
2013-03-22 10:30:00,50.3,43.4,29.76,NNE,13,4.0,9.0,77,0.00,,,0.00,Wunderground v.1.15,2013-03-22 15:30:00,
2013-03-22 10:40:00,49.7,42.8,29.76,NE,34,6.0,6.0,77,0.00,,,0.00,Wunderground v.1.15,2013-03-22 15:40:00,
2013-03-22 10:50:00,50.0,43.4,29.76,North,9,4.0,5.0,78,0.00,,,0.00,Wunderground v.1.15,2013-03-22 15:50:00,
2013-03-22 11:00:00,50.0,43.4,29.77,North,9,4.0,7.0,78,0.00,,,0.00,Wunderground v.1.15,2013-03-22 16:00:00,
2013-03-22 11:10:00,50.2,43.6,29.77,ENE,67,3.0,3.0,78,0.00,,,0.00,Wunderground v.1.15,2013-03-22 16:10:00,
2013-03-22 11:20:00,50.0,43.1,29.77,NW,324,4.0,4.0,77,0.00,,,0.00,Wunderground v.1.15,2013-03-22 16:20:00,
2013-03-22 11:30:00,50.2,43.3,29.77,NNE,19,4.0,9.0,77,0.00,,,0.00,Wunderground v.1.15,2013-03-22 16:30:00,
2013-03-22 11:40:00,50.0,43.1,29.77,NNW,344,5.0,8.0,77,0.00,,,0.00,Wunderground v.1.15,2013-03-22 16:40:00,
2013-03-22 11:50:00,49.8,43.2,29.77,North,9,4.0,4.0,78,0.00,,,0.00,Wunderground v.1.15,2013-03-22 16:50:00,
2013-03-22 12:00:00,49.4,42.8,29.77,North,355,5.0,5.0,78,0.00,,,0.00,Wunderground v.1.15,2013-03-22 17:00:00,
2013-03-22 12:10:00,49.4,43.2,29.77,NNE,31,3.0,5.0,79,0.00,,,0.00,Wunderground v.1.15,2013-03-22 17:10:00,
2013-03-22 12:20:00,49.6,43.4,29.77,North,11,4.0,4.0,79,0.00,,,0.00,Wunderground v.1.15,2013-03-22 17:20:00,
2013-03-22 12:30:00,49.4,43.2,29.78,North,360,4.0,4.0,79,0.00,,,0.00,Wunderground v.1.15,2013-03-22 17:30:00,
2013-03-22 12:40:00,49.3,43.4,29.78,NNW,341,4.0,4.0,80,0.00,,,0.00,Wunderground v.1.15,2013-03-22 17:40:00,
2013-03-22 12:50:00,49.2,43.3,29.78,North,5,5.0,5.0,80,0.00,,,0.00,Wunderground v.1.15,2013-03-22 17:50:00,
2013-03-22 13:00:00,49.1,43.5,29.79,North,5,4.0,5.0,81,0.00,,,0.00,Wunderground v.1.15,2013-03-22 18:00:00,
2013-03-22 13:10:00,49.1,43.5,29.79,NW,316,4.0,4.0,81,0.00,,,0.00,Wunderground v.1.15,2013-03-22 18:10:00,
2013-03-22 13:20:00,49.4,43.8,29.79,NNW,347,2.0,5.0,81,0.00,,,0.00,Wunderground v.1.15,2013-03-22 18:20:00,
2013-03-22 13:30:00,49.5,43.9,29.78,NNW,327,3.0,3.0,81,0.00,,,0.00,Wunderground v.1.15,2013-03-22 18:30:00,
2013-03-22 13:40:00,49.6,44.0,29.79,North,351,3.0,3.0,81,0.00,,,0.00,Wunderground v.1.15,2013-03-22 18:40:00,
2013-03-22 13:50:00,49.2,43.6,29.79,North,350,5.0,5.0,81,0.00,,,0.00,Wunderground v.1.15,2013-03-22 18:50:00,
2013-03-22 14:00:00,49.4,44.1,29.79,WNW,282,3.0,3.0,82,0.00,,,0.00,Wunderground v.1.15,2013-03-22 19:00:00,
2013-03-22 14:10:00,49.3,44.0,29.79,NW,309,3.0,5.0,82,0.00,,,0.00,Wunderground v.1.15,2013-03-22 19:10:00,
2013-03-22 14:20:00,49.0,43.7,29.78,West,274,4.0,4.0,82,0.00,,,0.00,Wunderground v.1.15,2013-03-22 19:20:00,
2013-03-22 14:30:00,48.8,43.5,29.78,North,355,5.0,8.0,82,0.00,,,0.00,Wunderground v.1.15,2013-03-22 19:30:00,
2013-03-22 14:40:00,48.7,43.5,29.77,WNW,289,5.0,9.0,82,0.00,,,0.00,Wunderground v.1.15,2013-03-22 19:40:00,
2013-03-22 14:50:00,48.9,44.0,29.77,North,350,5.0,5.0,83,0.00,,,0.00,Wunderground v.1.15,2013-03-22 19:50:00,
2013-03-22 15:00:00,49.0,43.7,29.76,North,360,5.0,5.0,82,0.00,,,0.00,Wunderground v.1.15,2013-03-22 20:00:00,
2013-03-22 15:10:00,49.1,43.8,29.76,North,360,5.0,5.0,82,0.00,,,0.00,Wunderground v.1.15,2013-03-22 20:10:00,
2013-03-22 15:20:00,49.0,43.7,29.76,North,11,6.0,6.0,82,0.00,,,0.00,Wunderground v.1.15,2013-03-22 20:20:00,
2013-03-22 15:30:00,49.0,43.7,29.76,North,360,4.0,4.0,82,0.00,,,0.00,Wunderground v.1.15,2013-03-22 20:30:00,
2013-03-22 15:40:00,49.0,43.7,29.76,NNE,22,5.0,5.0,82,0.00,,,0.00,Wunderground v.1.15,2013-03-22 20:40:00,
2013-03-22 15:50:00,49.2,43.6,29.76,NNW,331,3.0,3.0,81,0.00,,,0.00,Wunderground v.1.15,2013-03-22 20:50:00,
2013-03-22 16:00:00,49.3,43.7,29.76,NNE,15,5.0,5.0,81,0.00,,,0.00,Wunderground v.1.15,2013-03-22 21:00:00,
2013-03-22 16:10:00,49.1,43.5,29.76,NNE,14,5.0,5.0,81,0.00,,,0.00,Wunderground v.1.15,2013-03-22 21:10:00,
2013-03-22 16:20:00,49.1,43.5,29.77,NNE,12,4.0,4.0,81,0.00,,,0.00,Wunderground v.1.15,2013-03-22 21:20:00,
2013-03-22 16:30:00,49.3,43.7,29.77,North,11,3.0,5.0,81,0.00,,,0.00,Wunderground v.1.15,2013-03-22 21:30:00,
2013-03-22 16:40:00,49.1,43.2,29.78,NW,306,4.0,5.0,80,0.00,,,0.00,Wunderground v.1.15,2013-03-22 21:40:00,
2013-03-22 16:50:00,49.1,43.2,29.78,NNE,15,3.0,5.0,80,0.00,,,0.00,Wunderground v.1.15,2013-03-22 21:50:00,
2013-03-22 17:00:00,49.0,43.4,29.78,NNE,22,4.0,4.0,81,0.00,,,0.00,Wunderground v.1.15,2013-03-22 22:00:00,
2013-03-22 17:10:00,48.8,42.9,29.79,NNW,346,4.0,9.0,80,0.00,,,0.00,Wunderground v.1.15,2013-03-22 22:10:00,
2013-03-22 17:20:00,48.7,43.1,29.79,NNE,20,4.0,4.0,81,0.00,,,0.00,Wunderground v.1.15,2013-03-22 22:20:00,
2013-03-22 17:30:00,48.9,43.3,29.79,North,360,3.0,3.0,81,0.00,,,0.00,Wunderground v.1.15,2013-03-22 22:30:00,
2013-03-22 17:40:00,48.7,42.8,29.79,North,360,5.0,5.0,80,0.00,,,0.00,Wunderground v.1.15,2013-03-22 22:40:00,
2013-03-22 17:50:00,48.6,43.0,29.79,NNW,342,3.0,3.0,81,0.00,,,0.00,Wunderground v.1.15,2013-03-22 22:50:00,
2013-03-22 18:00:00,48.7,43.1,29.79,North,360,3.0,3.0,81,0.00,,,0.00,Wunderground v.1.15,2013-03-22 23:00:00,
2013-03-22 18:10:00,48.7,43.1,29.79,NNW,346,3.0,6.0,81,0.00,,,0.00,Wunderground v.1.15,2013-03-22 23:10:00,
2013-03-22 18:20:00,48.2,42.6,29.80,NNE,31,4.0,6.0,81,0.00,,,0.00,Wunderground v.1.15,2013-03-22 23:20:00,
2013-03-22 18:30:00,47.9,42.7,29.80,NNW,331,4.0,4.0,82,0.00,,,0.00,Wunderground v.1.15,2013-03-22 23:30:00,
2013-03-22 18:40:00,47.9,43.0,29.80,North,351,3.0,4.0,83,0.00,,,0.00,Wunderground v.1.15,2013-03-22 23:40:00,
2013-03-22 18:50:00,47.8,42.9,29.81,North,11,4.0,4.0,83,0.00,,,0.00,Wunderground v.1.15,2013-03-22 23:50:00,
2013-03-22 19:00:00,47.9,43.3,29.80,NNW,346,2.0,2.0,84,0.00,,,0.00,Wunderground v.1.15,2013-03-23 00:00:00,
2013-03-22 19:10:00,48.0,43.4,29.80,North,360,1.0,1.0,84,0.00,,,0.00,Wunderground v.1.15,2013-03-23 00:10:00,
2013-03-22 19:20:00,47.8,43.5,29.81,North,350,3.0,4.0,85,0.00,,,0.00,Wunderground v.1.15,2013-03-23 00:20:00,
2013-03-22 19:30:00,47.7,43.4,29.81,NNW,330,2.0,3.0,85,0.00,,,0.00,Wunderground v.1.15,2013-03-23 00:30:00,
2013-03-22 19:40:00,47.6,43.6,29.81,NNW,342,3.0,3.0,86,0.00,,,0.00,Wunderground v.1.15,2013-03-23 00:40:00,
2013-03-22 19:50:00,47.6,43.6,29.81,NNW,340,2.0,2.0,86,0.00,,,0.00,Wunderground v.1.15,2013-03-23 00:50:00,
2013-03-22 20:00:00,47.5,43.5,29.81,NNE,18,2.0,3.0,86,0.00,,,0.00,Wunderground v.1.15,2013-03-23 01:00:00,
2013-03-22 20:10:00,47.5,43.5,29.81,North,360,2.0,2.0,86,0.00,,,0.00,Wunderground v.1.15,2013-03-23 01:10:00,
2013-03-22 20:20:00,47.6,43.9,29.80,NNE,32,1.0,1.0,87,0.00,,,0.00,Wunderground v.1.15,2013-03-23 01:20:00,
2013-03-22 20:30:00,47.5,43.8,29.80,NE,38,0.0,2.0,87,0.00,,,0.00,Wunderground v.1.15,2013-03-23 01:30:00,
2013-03-22 20:40:00,47.4,43.7,29.80,NNE,20,0.0,0.0,87,0.00,,,0.00,Wunderground v.1.15,2013-03-23 01:40:00,
2013-03-22 20:50:00,47.5,43.8,29.80,North,10,0.0,3.0,87,0.00,,,0.00,Wunderground v.1.15,2013-03-23 01:50:00,
2013-03-22 21:00:00,47.4,43.7,29.81,NNE,17,1.0,1.0,87,0.00,,,0.00,Wunderground v.1.15,2013-03-23 02:00:00,
2013-03-22 21:10:00,47.4,43.7,29.81,NE,45,0.0,3.0,87,0.00,,,0.00,Wunderground v.1.15,2013-03-23 02:10:00,
2013-03-22 21:20:00,47.4,43.7,29.82,NNW,345,1.0,1.0,87,0.00,,,0.00,Wunderground v.1.15,2013-03-23 02:20:00,
2013-03-22 21:30:00,47.5,43.8,29.83,North,9,1.0,2.0,87,0.00,,,0.00,Wunderground v.1.15,2013-03-23 02:30:00,
2013-03-22 21:40:00,47.6,43.9,29.83,North,355,0.0,1.0,87,0.00,,,0.00,Wunderground v.1.15,2013-03-23 02:40:00,
2013-03-22 21:50:00,47.7,44.0,29.84,North,355,2.0,2.0,87,0.00,,,0.00,Wunderground v.1.15,2013-03-23 02:50:00,
2013-03-22 22:00:00,47.8,44.1,29.84,North,5,1.0,5.0,87,0.00,,,0.00,Wunderground v.1.15,2013-03-23 03:00:00,
2013-03-22 22:10:00,47.7,44.0,29.85,NNW,344,2.0,3.0,87,0.00,,,0.00,Wunderground v.1.15,2013-03-23 03:10:00,
2013-03-22 22:20:00,47.8,44.1,29.85,North,355,3.0,5.0,87,0.00,,,0.00,Wunderground v.1.15,2013-03-23 03:20:00,
2013-03-22 22:30:00,47.8,43.8,29.85,NNE,22,3.0,4.0,86,0.00,,,0.00,Wunderground v.1.15,2013-03-23 03:30:00,
2013-03-22 22:40:00,47.8,43.8,29.85,NNE,26,2.0,2.0,86,0.00,,,0.00,Wunderground v.1.15,2013-03-23 03:40:00,
2013-03-22 22:50:00,47.9,43.9,29.85,North,360,1.0,1.0,86,0.00,,,0.00,Wunderground v.1.15,2013-03-23 03:50:00,
2013-03-22 23:00:00,48.0,44.0,29.85,NE,42,1.0,1.0,86,0.00,,,0.00,Wunderground v.1.15,2013-03-23 04:00:00,
2013-03-22 23:10:00,47.9,43.9,29.84,North,5,1.0,1.0,86,0.00,,,0.00,Wunderground v.1.15,2013-03-23 04:10:00,
2013-03-22 23:20:00,48.0,44.0,29.83,NNE,29,0.0,0.0,86,0.00,,,0.00,Wunderground v.1.15,2013-03-23 04:20:00,
2013-03-22 23:30:00,47.9,43.9,29.83,North,5,2.0,2.0,86,0.00,,,0.00,Wunderground v.1.15,2013-03-23 04:30:00,
2013-03-22 23:40:00,47.9,43.9,29.83,NE,41,1.0,1.0,86,0.00,,,0.00,Wunderground v.1.15,2013-03-23 04:40:00,
2013-03-22 23:50:00,48.0,44.0,29.83,North,355,0.0,1.0,86,0.00,,,0.00,Wunderground v.1.15,2013-03-23 04:50:00,